createdAt,value
2019-04-10T00:00:10.979Z,6.27
2019-04-10T00:02:21.700Z,6.31
2019-04-10T00:04:29.751Z,6.28
2019-04-10T00:06:37.725Z,6.25
2019-04-10T00:08:46.636Z,6.19
2019-04-10T00:10:54.718Z,6.21
2019-04-10T00:13:02.502Z,6.25
2019-04-10T00:15:10.272Z,6.23
2019-04-10T00:17:18.603Z,6.30
2019-04-10T00:19:26.720Z,6.20
2019-04-10T00:21:35.521Z,6.21
2019-04-10T00:23:43.679Z,6.05
2019-04-10T00:25:51.697Z,6.06
2019-04-10T00:27:59.480Z,6.05
2019-04-10T00:30:09.102Z,6.00
2019-04-10T00:32:17.064Z,5.88
2019-04-10T00:34:25.418Z,5.77
2019-04-10T00:36:33.318Z,5.82
2019-04-10T00:38:42.255Z,5.67
2019-04-10T00:40:50.174Z,5.72
2019-04-10T00:42:58.920Z,5.65
2019-04-10T00:45:07.917Z,5.71
2019-04-10T00:47:15.797Z,5.74
2019-04-10T00:49:23.940Z,5.69
2019-04-10T00:51:31.775Z,5.67
2019-04-10T00:53:41.255Z,5.70
2019-04-10T00:55:50.209Z,5.68
2019-04-10T00:57:58.217Z,5.59
2019-04-10T01:00:09.222Z,5.58
2019-04-10T01:02:16.893Z,5.51
2019-04-10T01:04:26.607Z,5.38
2019-04-10T01:06:34.792Z,5.31
2019-04-10T01:08:44.617Z,5.44
2019-04-10T01:10:52.630Z,5.22
2019-04-10T01:13:00.677Z,5.36
2019-04-10T01:15:09.964Z,5.29
2019-04-10T01:17:17.783Z,5.21
2019-04-10T01:19:25.935Z,5.24
2019-04-10T01:21:34.693Z,5.18
2019-04-10T01:23:42.586Z,5.29
2019-04-10T01:25:50.582Z,5.19
2019-04-10T01:27:58.500Z,5.32
2019-04-10T01:30:08.711Z,5.11
2019-04-10T01:32:17.421Z,5.15
2019-04-10T01:34:25.444Z,5.11
2019-04-10T01:36:33.396Z,5.08
2019-04-10T01:38:41.878Z,5.07
2019-04-10T01:40:51.078Z,4.83
2019-04-10T01:43:06.634Z,5.01
2019-04-10T01:45:09.278Z,5.04
2019-04-10T01:47:17.260Z,5.02
2019-04-10T01:49:26.506Z,4.85
2019-04-10T01:51:35.362Z,4.82
2019-04-10T01:53:44.179Z,4.82
2019-04-10T01:55:52.025Z,4.61
2019-04-10T01:58:01.491Z,4.54
2019-04-10T02:00:13.215Z,4.49
2019-04-10T02:02:35.759Z,4.53
2019-04-10T02:04:43.841Z,4.64
2019-04-10T02:06:53.714Z,4.66
2019-04-10T02:09:02.546Z,4.66
2019-04-10T02:11:11.325Z,4.64
2019-04-10T02:13:19.195Z,4.47
2019-04-10T02:15:28.225Z,4.46
2019-04-10T02:17:36.854Z,4.44
2019-04-10T02:19:44.686Z,4.26
2019-04-10T02:21:52.402Z,4.21
2019-04-10T02:24:00.901Z,4.22
2019-04-10T02:26:09.461Z,4.37
2019-04-10T02:28:17.216Z,4.26
2019-04-10T02:30:26.176Z,4.17
2019-04-10T02:32:34.585Z,4.35
2019-04-10T02:34:43.782Z,4.36
2019-04-10T02:36:55.120Z,4.28
2019-04-10T02:39:19.070Z,4.15
2019-04-10T02:41:14.937Z,4.20
2019-04-10T02:43:23.296Z,4.11
2019-04-10T02:45:32.545Z,3.97
2019-04-10T02:47:41.233Z,3.99
2019-04-10T02:49:49.338Z,3.89
2019-04-10T02:51:57.131Z,4.05
2019-04-10T02:54:05.599Z,3.99
2019-04-10T02:56:13.743Z,4.12
2019-04-10T02:58:22.264Z,4.13
2019-04-10T03:00:30.454Z,4.01
2019-04-10T03:02:39.208Z,4.03
2019-04-10T03:04:49.097Z,3.89
2019-04-10T03:06:57.620Z,3.83
2019-04-10T03:09:28.087Z,3.89
2019-04-10T03:11:20.066Z,3.84
2019-04-10T03:13:29.480Z,3.96
2019-04-10T03:15:38.811Z,3.95
2019-04-10T03:17:48.250Z,3.77
2019-04-10T03:19:56.157Z,3.78
2019-04-10T03:22:03.951Z,3.88
2019-04-10T03:24:11.880Z,3.88
2019-04-10T03:26:19.785Z,3.82
2019-04-10T03:28:27.857Z,3.80
2019-04-10T03:30:36.961Z,3.75
2019-04-10T03:32:51.564Z,3.71
2019-04-10T03:34:56.680Z,3.70
2019-04-10T03:37:04.573Z,3.72
2019-04-10T03:39:13.242Z,3.71
2019-04-10T03:41:22.226Z,3.77
2019-04-10T03:43:30.100Z,3.89
2019-04-10T03:45:39.035Z,3.84
2019-04-10T03:47:47.393Z,3.87
2019-04-10T03:49:55.280Z,3.86
2019-04-10T03:52:03.190Z,3.93
2019-04-10T03:54:13.063Z,3.98
2019-04-10T03:56:21.374Z,4.17
2019-04-10T03:58:29.157Z,4.16
2019-04-10T04:00:36.837Z,4.08
2019-04-10T04:02:44.604Z,4.21
2019-04-10T04:04:52.443Z,4.21
2019-04-10T04:07:01.548Z,4.31
2019-04-10T04:09:12.009Z,4.24
2019-04-10T04:11:19.775Z,4.29
2019-04-10T04:13:27.919Z,4.29
2019-04-10T04:15:35.894Z,4.34
2019-04-10T04:17:44.410Z,4.37
2019-04-10T04:19:52.599Z,4.24
2019-04-10T04:22:00.651Z,4.27
2019-04-10T04:24:09.538Z,4.35
2019-04-10T04:26:17.376Z,4.31
2019-04-10T04:28:25.738Z,4.31
2019-04-10T04:30:34.099Z,4.33
2019-04-10T04:32:42.162Z,4.43
2019-04-10T04:34:49.979Z,4.53
2019-04-10T04:36:58.139Z,4.65
2019-04-10T04:39:17.956Z,4.67
2019-04-10T04:41:18.234Z,4.82
2019-04-10T04:43:26.030Z,4.84
2019-04-10T04:45:33.811Z,4.89
2019-04-10T04:47:41.503Z,4.86
2019-04-10T04:49:50.249Z,4.86
2019-04-10T04:51:58.224Z,4.86
2019-04-10T04:54:06.684Z,4.73
2019-04-10T04:56:15.666Z,4.84
2019-04-10T04:58:26.330Z,4.87
2019-04-10T05:00:34.222Z,5.01
2019-04-10T05:02:42.682Z,5.04
2019-04-10T05:04:51.441Z,5.09
2019-04-10T05:06:59.921Z,4.99
2019-04-10T05:09:09.148Z,5.04
2019-04-10T05:11:16.813Z,4.88
2019-04-10T05:13:24.540Z,4.93
2019-04-10T05:15:33.246Z,5.00
2019-04-10T05:17:41.792Z,4.81
2019-04-10T05:19:50.292Z,4.94
2019-04-10T05:21:59.451Z,5.09
2019-04-10T05:24:07.399Z,5.13
2019-04-10T05:26:15.225Z,5.20
2019-04-10T05:28:24.217Z,5.21
2019-04-10T05:30:33.410Z,5.10
2019-04-10T05:32:41.842Z,5.11
2019-04-10T05:34:50.853Z,5.22
2019-04-10T05:36:58.849Z,5.18
2019-04-10T05:39:08.810Z,4.96
2019-04-10T05:41:17.534Z,5.16
2019-04-10T05:43:26.066Z,5.23
2019-04-10T05:45:33.965Z,5.19
2019-04-10T05:47:42.762Z,5.16
2019-04-10T05:49:50.617Z,5.26
2019-04-10T05:51:58.397Z,5.33
2019-04-10T05:54:06.548Z,5.39
2019-04-10T05:56:16.095Z,5.37
2019-04-10T05:58:24.033Z,5.30
2019-04-10T06:00:32.676Z,5.39
2019-04-10T06:02:41.874Z,5.42
2019-04-10T06:04:49.784Z,5.44
2019-04-10T06:06:58.692Z,5.35
2019-04-10T06:09:09.466Z,5.41
2019-04-10T06:11:17.227Z,5.46
2019-04-10T06:13:25.668Z,5.45
2019-04-10T06:15:33.475Z,5.51
2019-04-10T06:17:42.739Z,5.59
2019-04-10T06:19:51.098Z,5.51
2019-04-10T06:21:58.977Z,5.52
2019-04-10T06:24:07.891Z,5.55
2019-04-10T06:26:17.033Z,5.62
2019-04-10T06:28:26.211Z,5.55
2019-04-10T06:30:34.353Z,5.55
2019-04-10T06:32:43.250Z,5.60
2019-04-10T06:34:51.499Z,5.60
2019-04-10T06:36:59.828Z,5.60
2019-04-10T06:39:08.898Z,5.65
2019-04-10T06:41:17.782Z,5.69
2019-04-10T06:43:26.605Z,5.68
2019-04-10T06:45:35.742Z,5.66
2019-04-10T06:47:44.523Z,5.65
2019-04-10T06:49:52.618Z,5.59
2019-04-10T06:52:01.790Z,5.61
2019-04-10T06:54:11.737Z,5.63
2019-04-10T06:56:20.849Z,5.66
2019-04-10T06:58:29.942Z,5.66
2019-04-10T07:00:38.961Z,5.73
2019-04-10T07:02:46.969Z,5.81
2019-04-10T07:04:56.587Z,5.83
2019-04-10T07:07:09.357Z,5.92
2019-04-10T07:09:21.257Z,5.97
2019-04-10T07:11:32.240Z,6.05
2019-04-10T07:13:41.447Z,6.08
2019-04-10T07:15:49.823Z,6.10
2019-04-10T07:17:58.802Z,6.08
2019-04-10T07:20:09.515Z,6.11
2019-04-10T07:22:17.732Z,6.17
2019-04-10T07:24:25.645Z,6.22
2019-04-10T07:26:40.289Z,6.26
2019-04-10T07:28:44.918Z,6.37
2019-04-10T07:30:57.816Z,6.42
2019-04-10T07:33:03.550Z,6.51
2019-04-10T07:35:15.085Z,6.59
2019-04-10T07:37:23.043Z,6.65
2019-04-10T07:39:33.291Z,6.78
2019-04-10T07:41:40.167Z,6.88
2019-04-10T07:43:53.880Z,6.93
2019-04-10T07:45:58.547Z,6.93
2019-04-10T07:48:06.620Z,6.97
2019-04-10T07:50:14.923Z,6.95
2019-04-10T07:52:23.948Z,6.98
2019-04-10T07:54:32.937Z,7.10
2019-04-10T07:56:41.776Z,7.09
2019-04-10T07:58:50.174Z,7.08
2019-04-10T08:00:58.880Z,7.07
2019-04-10T08:03:06.740Z,7.03
2019-04-10T08:05:16.664Z,7.07
2019-04-10T08:07:30.378Z,6.99
2019-04-10T08:09:35.612Z,7.13
2019-04-10T08:11:44.691Z,7.20
2019-04-10T08:13:53.267Z,7.34
2019-04-10T08:16:02.872Z,7.39
2019-04-10T08:18:10.900Z,7.47
2019-04-10T08:20:21.872Z,7.49
2019-04-10T08:22:30.706Z,7.56
2019-04-10T08:24:38.681Z,7.56
2019-04-10T08:26:47.219Z,7.61
2019-04-10T08:28:55.157Z,7.52
2019-04-10T08:31:02.928Z,7.60
2019-04-10T08:33:11.887Z,7.65
2019-04-10T08:35:20.797Z,7.79
2019-04-10T08:37:28.627Z,7.83
2019-04-10T08:39:42.606Z,7.83
2019-04-10T08:41:46.076Z,7.77
2019-04-10T08:43:54.466Z,7.86
2019-04-10T08:46:03.428Z,7.91
2019-04-10T08:48:11.249Z,7.99
2019-04-10T08:50:19.717Z,8.11
2019-04-10T08:52:28.351Z,8.29
2019-04-10T08:54:36.637Z,8.41
2019-04-10T08:56:44.927Z,8.46
2019-04-10T08:58:52.683Z,8.53
2019-04-10T09:01:00.799Z,8.64
2019-04-10T09:03:08.894Z,8.62
2019-04-10T09:05:17.849Z,8.53
2019-04-10T09:07:26.351Z,8.67
2019-04-10T09:09:34.187Z,8.71
2019-04-10T09:11:42.993Z,8.71
2019-04-10T09:13:52.759Z,8.64
2019-04-10T09:16:00.714Z,8.87
2019-04-10T09:18:10.049Z,8.97
2019-04-10T09:20:18.412Z,9.11
2019-04-10T09:22:26.257Z,9.10
2019-04-10T09:24:34.177Z,9.26
2019-04-10T09:26:42.005Z,9.00
2019-04-10T09:28:50.693Z,9.16
2019-04-10T09:30:59.499Z,9.20
2019-04-10T09:33:20.865Z,9.32
2019-04-10T09:35:22.580Z,9.46
2019-04-10T09:37:31.271Z,9.58
2019-04-10T09:39:41.278Z,9.69
2019-04-10T09:41:50.148Z,9.63
2019-04-10T09:43:58.248Z,9.83
2019-04-10T09:46:06.498Z,9.88
2019-04-10T09:48:14.231Z,9.75
2019-04-10T09:50:22.014Z,9.84
2019-04-10T09:52:32.065Z,9.64
2019-04-10T09:54:42.536Z,9.80
2019-04-10T09:56:50.627Z,9.87
2019-04-10T09:58:58.811Z,10.03
2019-04-10T10:01:13.707Z,9.91
2019-04-10T10:03:21.223Z,9.99
2019-04-10T10:05:28.955Z,10.00
2019-04-10T10:07:38.999Z,10.04
2019-04-10T10:09:49.716Z,9.47
2019-04-10T10:11:58.934Z,9.66
2019-04-10T10:14:06.892Z,9.93
2019-04-10T10:16:14.993Z,10.01
2019-04-10T10:18:23.482Z,9.94
2019-04-10T10:20:32.141Z,10.11
2019-04-10T10:22:40.956Z,10.00
2019-04-10T10:24:49.133Z,10.12
2019-04-10T10:26:57.763Z,10.14
2019-04-10T10:29:05.801Z,10.22
2019-04-10T10:31:13.757Z,10.33
2019-04-10T10:33:21.667Z,10.36
2019-04-10T10:35:29.965Z,10.05
2019-04-10T10:37:38.827Z,10.31
2019-04-10T10:39:47.271Z,9.99
2019-04-10T10:41:55.143Z,10.15
2019-04-10T10:44:03.053Z,10.17
2019-04-10T10:46:11.388Z,10.20
2019-04-10T10:48:19.858Z,10.13
2019-04-10T10:50:28.924Z,10.22
2019-04-10T10:52:37.905Z,10.31
2019-04-10T10:54:45.688Z,10.60
2019-04-10T10:56:53.519Z,10.69
2019-04-10T10:59:01.374Z,10.82
2019-04-10T11:01:09.156Z,10.89
2019-04-10T11:03:18.176Z,11.05
2019-04-10T11:05:26.008Z,10.97
2019-04-10T11:07:35.132Z,10.96
2019-04-10T11:09:44.214Z,11.18
2019-04-10T11:11:53.629Z,11.22
2019-04-10T11:14:03.516Z,11.05
2019-04-10T11:16:13.051Z,10.95
2019-04-10T11:18:22.150Z,10.89
2019-04-10T11:20:30.054Z,11.08
2019-04-10T11:22:37.962Z,10.92
2019-04-10T11:24:46.873Z,11.03
2019-04-10T11:26:55.105Z,11.06
2019-04-10T11:29:03.729Z,10.96
2019-04-10T11:31:11.560Z,11.15
2019-04-10T11:33:19.368Z,11.29
2019-04-10T11:35:27.180Z,11.33
2019-04-10T11:37:43.440Z,11.20
2019-04-10T11:39:47.549Z,11.21
2019-04-10T11:41:57.719Z,11.07
2019-04-10T11:44:09.109Z,11.06
2019-04-10T11:46:20.089Z,11.10
2019-04-10T11:48:30.763Z,11.25
2019-04-10T11:50:39.524Z,11.25
2019-04-10T11:55:08.801Z,11.54
2019-04-10T11:57:12.506Z,11.49
2019-04-10T11:59:24.129Z,11.41
2019-04-10T12:01:36.891Z,11.63
2019-04-10T12:03:49.058Z,11.42
2019-04-10T12:05:57.672Z,11.53
2019-04-10T12:08:32.027Z,11.61
2019-04-10T12:12:25.875Z,11.82
2019-04-10T12:14:35.403Z,11.89
2019-04-10T12:16:45.247Z,11.86
2019-04-10T12:18:53.274Z,11.83
2019-04-10T12:21:01.905Z,11.80
2019-04-10T12:23:10.465Z,11.54
2019-04-10T12:25:18.643Z,11.65
2019-04-10T12:27:27.313Z,11.70
2019-04-10T12:29:35.295Z,11.44
2019-04-10T12:31:43.989Z,11.32
2019-04-10T12:33:52.788Z,11.19
2019-04-10T12:36:00.616Z,11.18
2019-04-10T12:38:10.787Z,11.30
2019-04-10T12:40:19.411Z,11.10
2019-04-10T12:42:28.143Z,11.06
2019-04-10T12:44:36.064Z,10.70
2019-04-10T12:46:43.982Z,10.95
2019-04-10T12:48:52.702Z,11.19
2019-04-10T12:51:01.375Z,11.15
2019-04-10T12:53:09.450Z,11.06
2019-04-10T12:55:18.590Z,11.11
2019-04-10T12:57:26.702Z,11.23
2019-04-10T12:59:35.324Z,11.16
2019-04-10T13:01:43.257Z,11.13
2019-04-10T13:03:51.561Z,10.88
2019-04-10T13:05:59.801Z,10.67
2019-04-10T13:08:18.808Z,10.94
2019-04-10T13:10:18.355Z,11.17
2019-04-10T13:12:27.321Z,11.33
2019-04-10T13:14:37.253Z,11.23
2019-04-10T13:16:46.169Z,11.23
2019-04-10T13:18:54.438Z,11.22
2019-04-10T13:21:02.249Z,11.27
2019-04-10T13:23:10.842Z,11.22
2019-04-10T13:25:18.815Z,11.37
2019-04-10T13:27:26.499Z,11.37
2019-04-10T13:29:34.379Z,11.46
2019-04-10T13:31:42.572Z,11.40
2019-04-10T13:33:51.049Z,11.36
2019-04-10T13:35:59.547Z,11.51
2019-04-10T13:38:08.704Z,11.52
2019-04-10T13:40:16.829Z,11.45
2019-04-10T13:42:25.123Z,11.58
2019-04-10T13:44:33.177Z,11.40
2019-04-10T13:46:41.140Z,11.24
2019-04-10T13:48:49.357Z,11.46
2019-04-10T13:50:57.370Z,11.45
2019-04-10T13:53:05.838Z,11.53
2019-04-10T13:55:14.963Z,11.54
2019-04-10T13:57:22.874Z,11.45
2019-04-10T13:59:31.208Z,11.49
2019-04-10T14:01:39.854Z,11.27
2019-04-10T14:03:48.606Z,11.39
2019-04-10T14:05:57.154Z,11.19
2019-04-10T14:08:06.226Z,10.91
2019-04-10T14:10:18.756Z,10.78
2019-04-10T14:12:27.089Z,10.86
2019-04-10T14:14:35.167Z,10.84
2019-04-10T14:16:44.618Z,10.35
2019-04-10T14:18:53.595Z,10.47
2019-04-10T14:21:03.316Z,10.07
2019-04-10T14:23:12.615Z,9.88
2019-04-10T14:25:37.914Z,9.70
2019-04-10T14:27:46.666Z,10.17
2019-04-10T14:29:54.656Z,10.35
2019-04-10T14:32:07.039Z,10.42
2019-04-10T14:34:15.701Z,10.56
2019-04-10T14:36:24.745Z,10.65
2019-04-10T14:38:34.703Z,10.52
2019-04-10T14:40:43.147Z,10.52
2019-04-10T14:42:51.431Z,10.56
2019-04-10T14:44:59.388Z,10.44
2019-04-10T14:47:08.567Z,10.28
2019-04-10T14:49:16.821Z,10.27
2019-04-10T14:51:24.747Z,10.15
2019-04-10T14:53:33.600Z,10.26
2019-04-10T14:55:41.827Z,10.30
2019-04-10T14:57:50.834Z,10.28
2019-04-10T14:59:58.751Z,10.10
2019-04-10T15:02:08.480Z,10.22
2019-04-10T15:04:17.274Z,10.22
2019-04-10T15:06:25.780Z,10.17
2019-04-10T15:08:35.606Z,10.07
2019-04-10T15:10:43.490Z,10.15
2019-04-10T15:12:51.286Z,10.27
2019-04-10T15:14:59.573Z,10.24
2019-04-10T15:17:09.462Z,9.87
2019-04-10T15:19:18.496Z,9.96
2019-04-10T15:21:27.047Z,10.10
2019-04-10T15:23:35.851Z,10.09
2019-04-10T15:25:43.822Z,10.13
2019-04-10T15:27:51.734Z,10.05
2019-04-10T15:29:59.563Z,10.08
2019-04-10T15:32:08.473Z,9.90
2019-04-10T15:34:16.278Z,9.90
2019-04-10T15:36:25.127Z,10.04
2019-04-10T15:38:34.562Z,9.81
2019-04-10T15:40:42.605Z,9.78
2019-04-10T15:42:50.381Z,9.78
2019-04-10T15:44:58.719Z,9.85
2019-04-10T15:47:13.392Z,9.93
2019-04-10T15:49:17.205Z,9.91
2019-04-10T15:51:25.294Z,9.86
2019-04-10T15:53:33.088Z,9.88
2019-04-10T15:55:40.941Z,9.89
2019-04-10T15:57:56.131Z,9.93
2019-04-10T16:00:03.180Z,9.87
2019-04-10T16:02:13.231Z,9.68
2019-04-10T16:04:23.275Z,9.81
2019-04-10T16:06:31.407Z,9.72
2019-04-10T16:08:40.593Z,9.74
2019-04-10T16:10:55.133Z,9.85
2019-04-10T16:13:10.891Z,9.93
2019-04-10T16:15:19.338Z,10.04
2019-04-10T16:17:39.919Z,10.01
2019-04-10T16:19:59.752Z,10.00
2019-04-10T16:22:09.359Z,10.02
2019-04-10T16:24:22.874Z,9.86
2019-04-10T16:26:32.169Z,9.75
2019-04-10T16:28:39.966Z,9.76
2019-04-10T16:30:48.640Z,9.79
2019-04-10T16:32:56.626Z,9.79
2019-04-10T16:35:07.364Z,9.73
2019-04-10T16:37:16.729Z,9.71
2019-04-10T16:39:25.678Z,9.53
2019-04-10T16:41:35.456Z,9.63
2019-04-10T16:43:44.457Z,9.53
2019-04-10T16:45:53.024Z,9.46
2019-04-10T16:48:00.948Z,9.43
2019-04-10T16:50:09.530Z,9.49
2019-04-10T16:52:17.332Z,9.55
2019-04-10T16:54:25.184Z,9.64
2019-04-10T16:56:33.869Z,9.64
2019-04-10T16:58:42.814Z,9.64
2019-04-10T17:00:50.727Z,9.38
2019-04-10T17:02:59.419Z,9.49
2019-04-10T17:05:08.622Z,9.54
2019-04-10T17:07:16.917Z,9.48
2019-04-10T17:09:26.908Z,9.58
2019-04-10T17:11:34.787Z,9.53
2019-04-10T17:13:42.632Z,9.50
2019-04-10T17:15:51.786Z,9.52
2019-04-10T17:18:01.032Z,9.47
2019-04-10T17:20:10.195Z,9.53
2019-04-10T17:22:30.802Z,9.55
2019-04-10T17:24:27.493Z,9.51
2019-04-10T17:26:35.426Z,9.39
2019-04-10T17:28:43.240Z,9.35
2019-04-10T17:30:51.890Z,9.42
2019-04-10T17:33:00.638Z,9.48
2019-04-10T17:35:11.549Z,9.38
2019-04-10T17:37:19.379Z,9.43
2019-04-10T17:39:27.298Z,9.34
2019-04-10T17:41:35.472Z,9.34
2019-04-10T17:43:43.488Z,9.36
2019-04-10T17:45:53.087Z,9.51
2019-04-10T17:48:01.137Z,9.54
2019-04-10T17:50:11.890Z,9.51
2019-04-10T17:52:20.895Z,9.28
2019-04-10T17:54:29.822Z,9.30
2019-04-10T17:56:38.306Z,9.35
2019-04-10T17:58:46.040Z,9.36
2019-04-10T18:00:55.698Z,9.46
2019-04-10T18:03:03.701Z,9.37
2019-04-10T18:05:12.649Z,9.20
2019-04-10T18:07:21.752Z,9.36
2019-04-10T18:09:30.590Z,8.72
2019-04-10T18:11:39.516Z,8.87
2019-04-10T18:13:47.365Z,8.85
2019-04-10T18:15:55.857Z,8.74
2019-04-10T18:18:05.743Z,8.92
2019-04-10T18:20:13.617Z,8.83
2019-04-10T18:22:22.644Z,8.65
2019-04-10T18:24:30.460Z,8.68
2019-04-10T18:26:39.436Z,8.52
2019-04-10T18:28:47.250Z,8.19
2019-04-10T18:30:55.030Z,8.28
2019-04-10T18:33:03.834Z,8.54
2019-04-10T18:35:12.357Z,8.24
2019-04-10T18:37:23.727Z,8.08
2019-04-10T18:39:30.440Z,8.29
2019-04-10T18:41:38.297Z,8.03
2019-04-10T18:43:46.643Z,8.00
2019-04-10T18:46:06.132Z,8.02
2019-04-10T18:48:06.223Z,7.81
2019-04-10T18:50:14.549Z,7.85
2019-04-10T18:52:23.376Z,7.94
2019-04-10T18:54:31.901Z,8.05
2019-04-10T18:56:40.961Z,8.03
2019-04-10T18:59:02.795Z,7.88
2019-04-10T19:01:14.238Z,7.98
2019-04-10T19:03:27.662Z,8.02
2019-04-10T19:05:40.336Z,8.01
2019-04-10T19:07:48.306Z,7.94
2019-04-10T19:09:56.646Z,7.85
2019-04-10T19:12:04.739Z,7.88
2019-04-10T19:14:12.676Z,7.89
2019-04-10T19:16:23.436Z,7.96
2019-04-10T19:18:32.134Z,8.19
2019-04-10T19:20:40.641Z,7.86
2019-04-10T19:22:48.708Z,7.95
2019-04-10T19:24:56.724Z,8.03
2019-04-10T19:27:05.058Z,8.04
2019-04-10T19:29:15.005Z,8.17
2019-04-10T19:31:24.800Z,8.20
2019-04-10T19:33:33.209Z,8.23
2019-04-10T19:35:41.406Z,8.25
2019-04-10T19:37:51.300Z,8.15
2019-04-10T19:39:58.902Z,8.13
2019-04-10T19:42:06.988Z,8.06
2019-04-10T19:44:15.058Z,8.10
2019-04-10T19:46:23.848Z,8.07
2019-04-10T19:48:33.022Z,8.01
2019-04-10T19:50:41.541Z,8.04
2019-04-10T19:52:49.286Z,8.01
2019-04-10T19:54:58.050Z,7.83
2019-04-10T19:57:06.861Z,8.03
2019-04-10T19:59:14.876Z,7.82
2019-04-10T20:01:24.520Z,7.98
2019-04-10T20:03:32.284Z,8.00
2019-04-10T20:05:41.397Z,7.89
2019-04-10T20:07:49.424Z,7.86
2019-04-10T20:09:57.361Z,7.96
2019-04-10T20:12:06.448Z,7.99
2019-04-10T20:14:16.783Z,7.98
2019-04-10T20:16:24.896Z,7.99
2019-04-10T20:18:34.971Z,8.05
2019-04-10T20:20:43.715Z,7.98
2019-04-10T20:22:51.637Z,7.87
2019-04-10T20:24:59.810Z,7.86
2019-04-10T20:27:07.790Z,7.92
2019-04-10T20:29:15.726Z,8.00
2019-04-10T20:31:25.561Z,7.67
2019-04-10T20:33:34.574Z,7.59
2019-04-10T20:35:42.586Z,7.74
2019-04-10T20:37:51.227Z,7.71
2019-04-10T20:39:59.250Z,7.59
2019-04-10T20:42:07.773Z,7.62
2019-04-10T20:44:16.649Z,7.59
2019-04-10T20:46:24.378Z,7.46
2019-04-10T20:48:32.816Z,7.44
2019-04-10T20:50:41.730Z,7.48
2019-04-10T20:52:49.645Z,7.36
2019-04-10T20:54:59.335Z,7.33
2019-04-10T20:57:08.452Z,7.45
2019-04-10T20:59:16.130Z,7.47
2019-04-10T21:01:25.132Z,7.44
2019-04-10T21:03:33.833Z,7.45
2019-04-10T21:05:42.450Z,7.53
2019-04-10T21:07:50.320Z,7.28
2019-04-10T21:09:58.761Z,7.36
2019-04-10T21:12:10.480Z,7.42
2019-04-10T21:14:15.931Z,7.15
2019-04-10T21:16:23.756Z,7.16
2019-04-10T21:18:31.534Z,7.29
2019-04-10T21:20:40.769Z,7.42
2019-04-10T21:22:49.349Z,7.19
2019-04-10T21:24:58.169Z,7.18
2019-04-10T21:27:06.237Z,6.95
2019-04-10T21:29:18.622Z,7.10
2019-04-10T21:31:26.082Z,7.00
2019-04-10T21:33:49.134Z,7.01
2019-04-10T21:35:57.515Z,6.91
2019-04-10T21:38:05.454Z,7.06
2019-04-10T21:40:14.480Z,7.10
2019-04-10T21:42:26.495Z,6.95
2019-04-10T21:44:33.151Z,6.87
2019-04-10T21:46:41.015Z,6.84
2019-04-10T21:48:48.955Z,6.65
2019-04-10T21:50:56.765Z,6.77
2019-04-10T21:53:04.514Z,6.75
2019-04-10T21:55:12.902Z,6.46
2019-04-10T21:57:20.782Z,6.52
2019-04-10T21:59:28.995Z,6.59
2019-04-10T22:01:38.172Z,6.42
2019-04-10T22:03:46.019Z,6.43
2019-04-10T22:06:01.730Z,6.42
2019-04-10T22:08:11.175Z,6.29
2019-04-10T22:10:32.660Z,6.41
2019-04-10T22:12:45.418Z,6.43
2019-04-10T22:14:50.297Z,6.30
2019-04-10T22:16:58.382Z,6.31
2019-04-10T22:19:06.859Z,6.36
2019-04-10T22:21:14.940Z,6.30
2019-04-10T22:23:23.084Z,6.22
2019-04-10T22:25:31.909Z,5.99
2019-04-10T22:27:39.915Z,6.08
2019-04-10T22:29:47.595Z,5.89
2019-04-10T22:31:55.272Z,5.74
2019-04-10T22:34:03.164Z,5.81
2019-04-10T22:36:11.017Z,5.71
2019-04-10T22:38:19.407Z,5.70
2019-04-10T22:40:27.430Z,5.79
2019-04-10T22:42:41.661Z,5.67
2019-04-10T22:44:46.475Z,5.75
2019-04-10T22:46:54.450Z,5.79
2019-04-10T22:49:02.408Z,5.63
2019-04-10T22:51:11.156Z,5.37
2019-04-10T22:53:19.389Z,5.29
2019-04-10T22:55:28.128Z,5.20
2019-04-10T22:57:39.777Z,5.03
2019-04-10T22:59:46.863Z,5.23
2019-04-10T23:02:02.180Z,5.27
2019-04-10T23:04:05.873Z,5.27
2019-04-10T23:06:13.882Z,5.15
2019-04-10T23:08:21.876Z,5.02
2019-04-10T23:10:29.861Z,5.01
2019-04-10T23:12:49.718Z,4.92
2019-04-10T23:14:47.205Z,5.00
2019-04-10T23:16:54.954Z,5.06
2019-04-10T23:19:03.639Z,4.96
2019-04-10T23:21:12.342Z,4.87
2019-04-10T23:23:21.185Z,4.98
2019-04-10T23:25:29.081Z,5.09
2019-04-10T23:27:37.749Z,4.98
2019-04-10T23:29:46.577Z,4.78
2019-04-10T23:31:54.549Z,4.85
2019-04-10T23:34:02.427Z,4.88
2019-04-10T23:36:10.183Z,4.80
2019-04-10T23:38:18.056Z,4.91
2019-04-10T23:40:25.835Z,4.75
2019-04-10T23:42:33.673Z,4.87
2019-04-10T23:44:42.911Z,4.90
2019-04-10T23:46:51.676Z,4.70
2019-04-10T23:48:59.598Z,4.83
2019-04-10T23:51:07.392Z,4.80
2019-04-10T23:53:16.180Z,4.36
2019-04-10T23:55:24.171Z,4.37
2019-04-10T23:57:31.971Z,4.39
2019-04-10T23:59:39.917Z,4.26
